Time;durP1;ratioP1;P1;durP2;ratioP2;P2;SDS_P1;SDS_P2;PMS_P1;PMS_P2;Temp;Humidity;BMP_temperature;BMP_pressure;BME280_temperature;BME280_humidity;BME280_pressure;Samples;Min_cycle;Max_cycle;Signal;HPM_P1;HPM_P2
2021/12/30 10:20:16;;;;;;;1.10;0.93;;;12.20;99.90;;;;;;5135651;27;20273;-81
2021/12/30 10:22:42;;;;;;;0.73;0.73;;;12.30;99.90;;;;;;5116713;28;20171;-80
2021/12/30 10:25:27;;;;;;;0.90;0.90;;;12.20;99.90;;;;;;5135327;28;20177;-80
2021/12/30 10:27:53;;;;;;;0.50;0.50;;;12.20;99.90;;;;;;5137690;28;20556;-80
2021/12/30 10:30:34;;;;;;;0.60;0.60;;;12.20;99.90;;;;;;5136564;28;20175;-80
2021/12/30 10:33:11;;;;;;;0.60;0.60;;;12.20;99.90;;;;;;5135059;28;20261;-80
2021/12/30 10:35:38;;;;;;;0.70;0.70;;;12.50;99.90;;;;;;5134705;28;20178;-80
2021/12/30 10:38:09;;;;;;;0.80;0.53;;;12.90;99.90;;;;;;5134461;27;20210;-79
2021/12/30 10:40:36;;;;;;;0.90;0.60;;;13.20;99.90;;;;;;5132866;28;20167;-80
2021/12/30 10:43:45;;;;;;;0.53;0.40;;;13.40;99.90;;;;;;5133520;28;20182;-80
2021/12/30 10:46:14;;;;;;;0.70;0.60;;;13.40;99.90;;;;;;5133497;28;20171;-80
2021/12/30 10:48:58;;;;;;;0.50;0.50;;;13.40;99.90;;;;;;5134599;27;20208;-80
2021/12/30 10:51:33;;;;;;;0.77;0.67;;;13.40;99.90;;;;;;5132769;28;20167;-80
2021/12/30 10:54:09;;;;;;;0.90;0.60;;;13.20;99.90;;;;;;5132320;28;20167;-80
2021/12/30 10:56:38;;;;;;;0.73;0.60;;;13.40;99.90;;;;;;5133626;27;20202;-80
2021/12/30 10:59:16;;;;;;;0.97;0.80;;;13.60;99.90;;;;;;5132315;28;20589;-80
2021/12/30 11:01:47;;;;;;;2.07;0.67;;;13.60;99.90;;;;;;5132441;28;20175;-80
2021/12/30 11:04:14;;;;;;;30.97;15.00;;;13.40;99.90;;;;;;5131894;28;20164;-80
2021/12/30 11:06:41;;;;;;;4.50;2.60;;;13.10;99.90;;;;;;5133037;27;20194;-80
2021/12/30 11:09:24;;;;;;;57.43;38.70;;;13.10;99.90;;;;;;5131201;28;20171;-80
2021/12/30 11:11:53;;;;;;;8.97;6.70;;;13.00;99.90;;;;;;5130648;28;20612;-80
2021/12/30 11:14:25;;;;;;;4.23;3.93;;;13.10;99.90;;;;;;5134705;28;20253;-81
2021/12/30 11:17:03;;;;;;;1.10;1.00;;;13.30;99.90;;;;;;5134845;28;20218;-80
2021/12/30 11:19:30;;;;;;;1.30;1.00;;;13.60;99.90;;;;;;5133456;28;20687;-80
2021/12/30 11:22:01;;;;;;;1.43;1.33;;;13.60;99.90;;;;;;5134987;27;20179;-80
2021/12/30 11:24:28;;;;;;;1.27;1.17;;;13.40;99.90;;;;;;5135117;27;20231;-80
2021/12/30 11:26:55;;;;;;;2.20;2.03;;;13.30;99.90;;;;;;5134784;27;20236;-80
2021/12/30 11:29:22;;;;;;;1.60;1.20;;;13.10;99.90;;;;;;5133005;27;20175;-81
2021/12/30 11:31:48;;;;;;;2.03;0.90;;;13.10;99.90;;;;;;5120952;28;20190;-81
2021/12/30 11:34:14;;;;;;;0.60;0.60;;;13.10;99.90;;;;;;5120123;28;20637;-80
2021/12/30 11:36:39;;;;;;;4.10;2.47;;;13.10;99.90;;;;;;5121564;28;20212;-80
2021/12/30 11:39:14;;;;;;;2.17;1.47;;;13.10;99.90;;;;;;5119595;28;20340;-80
2021/12/30 11:41:43;;;;;;;17.07;8.90;;;13.00;99.90;;;;;;5120844;28;20178;-80
2021/12/30 11:44:09;;;;;;;21.20;9.73;;;13.00;99.90;;;;;;5123060;28;20167;-79
2021/12/30 11:46:44;;;;;;;13.73;7.37;;;13.00;99.90;;;;;;5124621;28;20218;-80
2021/12/30 11:49:15;;;;;;;11.23;5.93;;;12.90;99.90;;;;;;5124147;28;20164;-80
2021/12/30 11:51:52;;;;;;;5.87;3.33;;;12.90;99.90;;;;;;5121935;28;20179;-80
2021/12/30 11:54:32;;;;;;;9.53;5.07;;;12.80;99.90;;;;;;5120249;28;20168;-80
2021/12/30 11:57:26;;;;;;;2.50;2.30;;;12.90;99.90;;;;;;5121111;28;20191;-80
2021/12/30 12:00:00;;;;;;;1.90;1.80;;;12.80;99.90;;;;;;5120639;28;20203;-80
2021/12/30 12:02:32;;;;;;;1.00;0.90;;;12.80;99.90;;;;;;5126327;28;20170;-80
2021/12/30 12:04:58;;;;;;;2.00;0.87;;;12.80;99.90;;;;;;5121882;28;20250;-80
2021/12/30 12:07:24;;;;;;;0.80;0.80;;;12.70;99.90;;;;;;5121508;28;20226;-80
2021/12/30 12:09:49;;;;;;;0.83;0.83;;;12.60;99.90;;;;;;5122824;28;20223;-80
2021/12/30 12:12:31;;;;;;;1.37;0.80;;;12.50;99.90;;;;;;5123366;28;20174;-80
2021/12/30 12:15:00;;;;;;;0.80;0.80;;;12.40;99.90;;;;;;5123621;28;20199;-80
2021/12/30 12:17:38;;;;;;;3.23;2.30;;;12.40;99.90;;;;;;5121765;28;20203;-81
2021/12/30 12:20:16;;;;;;;1.00;0.83;;;12.40;99.90;;;;;;5121451;28;20176;-81
2021/12/30 12:22:41;;;;;;;0.87;0.80;;;12.40;99.90;;;;;;5121743;28;20196;-80
2021/12/30 12:25:16;;;;;;;1.87;1.73;;;12.30;99.90;;;;;;5123766;28;20633;-81
2021/12/30 12:27:47;;;;;;;1.10;0.97;;;12.40;99.90;;;;;;5124546;28;20240;-80
2021/12/30 12:30:31;;;;;;;1.10;1.00;;;12.30;99.90;;;;;;5123229;28;20231;-80
2021/12/30 12:32:59;;;;;;;0.63;0.63;;;12.30;99.90;;;;;;5124638;28;20201;-80
2021/12/30 12:35:28;;;;;;;0.80;0.80;;;12.30;99.90;;;;;;5123209;28;20168;-80
2021/12/30 12:38:05;;;;;;;1.03;0.87;;;12.20;99.90;;;;;;5122253;28;20215;-80
2021/12/30 12:40:36;;;;;;;1.43;1.20;;;12.30;99.90;;;;;;5120936;28;20175;-80
2021/12/30 12:43:23;;;;;;;1.43;1.20;;;12.50;99.90;;;;;;5120705;28;20258;-80
2021/12/30 12:45:49;;;;;;;1.10;0.80;;;12.60;99.90;;;;;;5122454;28;20514;-80
2021/12/30 12:48:18;;;;;;;2.97;1.70;;;12.70;99.90;;;;;;5118940;28;20221;-81
2021/12/30 12:50:45;;;;;;;3.57;2.17;;;12.80;99.90;;;;;;5119313;28;20180;-80
2021/12/30 12:53:28;;;;;;;2.43;2.00;;;12.80;99.90;;;;;;5119153;28;20255;-80
2021/12/30 12:56:08;;;;;;;2.10;1.80;;;12.90;99.90;;;;;;5119277;28;20167;-80
2021/12/30 12:58:48;;;;;;;2.50;1.67;;;12.90;99.90;;;;;;5118538;28;20302;-80
2021/12/30 13:01:20;;;;;;;2.23;1.93;;;13.00;99.90;;;;;;5120035;28;20147;-79
2021/12/30 13:03:46;;;;;;;1.00;1.00;;;13.10;99.90;;;;;;5120031;28;20152;-80
2021/12/30 13:06:34;;;;;;;2.57;2.20;;;13.00;99.90;;;;;;5119931;28;20520;-80
2021/12/30 13:09:12;;;;;;;1.17;1.07;;;13.00;99.90;;;;;;5118954;28;20173;-81
2021/12/30 13:11:41;;;;;;;1.80;1.50;;;12.90;99.90;;;;;;5118953;28;20155;-79
2021/12/30 13:14:23;;;;;;;1.67;1.57;;;12.70;99.90;;;;;;5117387;28;20561;-80
2021/12/30 13:16:55;;;;;;;1.93;1.57;;;12.60;99.90;;;;;;5118188;28;20199;-79
2021/12/30 13:19:45;;;;;;;2.10;1.60;;;12.50;99.90;;;;;;5119397;28;20605;-79
2021/12/30 13:22:12;;;;;;;5.17;3.87;;;12.50;99.90;;;;;;5119313;28;20557;-80
2021/12/30 13:24:52;;;;;;;2.03;1.60;;;12.50;99.90;;;;;;5118640;28;20250;-81
2021/12/30 13:27:44;;;;;;;2.03;1.50;;;12.40;99.90;;;;;;5117790;28;20248;-80
2021/12/30 13:30:16;;;;;;;1.87;1.60;;;12.40;99.90;;;;;;5116679;28;20160;-80
2021/12/30 13:32:44;;;;;;;5.30;3.30;;;12.30;99.90;;;;;;5116625;28;20633;-80
2021/12/30 13:35:17;;;;;;;7.60;3.50;;;12.30;99.90;;;;;;5118543;28;20633;-79
2021/12/30 13:37:45;;;;;;;3.83;2.37;;;12.40;99.90;;;;;;5117981;28;20202;-79
2021/12/30 13:40:24;;;;;;;2.13;1.47;;;12.40;99.90;;;;;;5117630;28;20176;-79
2021/12/30 13:42:59;;;;;;;2.07;1.20;;;12.40;99.90;;;;;;5118536;28;20179;-79
2021/12/30 13:45:30;;;;;;;5.30;3.03;;;12.40;99.90;;;;;;5119165;28;20528;-79
2021/12/30 13:48:11;;;;;;;3.03;2.03;;;12.30;99.90;;;;;;5117662;28;20192;-79
2021/12/30 13:50:40;;;;;;;3.60;2.90;;;12.30;99.90;;;;;;5119586;28;20167;-79
2021/12/30 13:53:06;;;;;;;2.23;1.87;;;12.30;99.90;;;;;;5117568;28;20206;-80
2021/12/30 13:55:39;;;;;;;3.00;2.27;;;12.30;99.90;;;;;;5121248;28;20167;-79
2021/12/30 13:58:16;;;;;;;3.63;2.87;;;12.30;99.90;;;;;;5121666;28;20191;-80
2021/12/30 14:00:54;;;;;;;3.83;2.10;;;12.20;99.90;;;;;;5116365;28;20219;-79
2021/12/30 14:03:26;;;;;;;2.43;1.27;;;12.10;99.90;;;;;;5119434;28;20618;-78
2021/12/30 14:05:51;;;;;;;1.87;1.50;;;12.10;99.90;;;;;;5114920;28;20163;-78
2021/12/30 14:08:23;;;;;;;1.27;1.17;;;12.00;99.90;;;;;;5117138;28;20520;-78
2021/12/30 14:10:53;;;;;;;1.60;1.23;;;12.00;99.90;;;;;;5116648;28;20172;-79
2021/12/30 14:13:20;;;;;;;5.50;2.27;;;12.00;99.90;;;;;;5117089;28;20160;-78
2021/12/30 14:15:53;;;;;;;7.73;6.37;;;12.10;99.90;;;;;;5117777;28;20168;-78
2021/12/30 14:18:19;;;;;;;2.60;1.67;;;12.20;99.90;;;;;;5115161;28;20218;-78
2021/12/30 14:20:45;;;;;;;3.40;2.03;;;11.90;99.90;;;;;;5113859;28;20172;-78
2021/12/30 14:23:11;;;;;;;1.17;1.00;;;;;;;;;;5113357;28;20666;-78
2021/12/30 14:25:41;;;;;;;1.97;1.53;;;12.20;99.90;;;;;;5115156;28;20179;-78
2021/12/30 14:28:27;;;;;;;5.03;1.50;;;11.80;99.90;;;;;;5118649;28;20232;-79
2021/12/30 14:30:56;;;;;;;1.63;1.47;;;11.90;99.90;;;;;;5132330;28;20179;-77
2021/12/30 14:33:33;;;;;;;2.07;1.13;;;11.80;99.90;;;;;;5137416;28;20178;-78
2021/12/30 14:36:17;;;;;;;1.83;1.50;;;11.90;99.90;;;;;;5139703;28;20302;-78
2021/12/30 14:38:45;;;;;;;2.00;1.70;;;11.80;99.90;;;;;;5141299;28;20202;-79
2021/12/30 14:41:16;;;;;;;6.77;4.93;;;12.00;99.90;;;;;;5137269;28;20538;-77
2021/12/30 14:44:07;;;;;;;2.27;1.93;;;12.20;99.90;;;;;;5138997;28;20161;-78
2021/12/30 14:46:34;;;;;;;1.97;1.60;;;12.00;99.90;;;;;;5138087;28;20201;-78
2021/12/30 14:49:03;;;;;;;2.33;2.00;;;12.10;99.90;;;;;;5137141;28;20171;-78
2021/12/30 14:51:33;;;;;;;2.57;2.27;;;11.90;99.90;;;;;;5117327;28;20175;-78
2021/12/30 14:54:01;;;;;;;2.00;1.80;;;11.80;99.90;;;;;;5116757;28;20239;-78
2021/12/30 14:56:27;;;;;;;3.23;2.20;;;12.20;99.90;;;;;;5117669;28;20703;-78
2021/12/30 14:58:53;;;;;;;2.13;1.90;;;11.90;99.90;;;;;;5120194;28;20231;-79
2021/12/30 15:01:19;;;;;;;2.67;2.33;;;;;;;;;;5141952;28;20167;-78
2021/12/30 15:03:45;;;;;;;1.83;1.73;;;11.70;99.90;;;;;;5132572;28;20164;-77
2021/12/30 15:06:11;;;;;;;1.77;1.10;;;11.80;99.90;;;;;;5119424;28;20198;-78
2021/12/30 15:08:36;;;;;;;1.50;1.40;;;11.50;99.90;;;;;;5123925;28;20202;-79
2021/12/30 15:11:02;;;;;;;1.97;1.30;;;11.70;99.90;;;;;;5124277;28;20180;-78
2021/12/30 15:13:28;;;;;;;1.77;1.47;;;11.80;99.90;;;;;;5126425;28;20637;-79
2021/12/30 15:15:54;;;;;;;2.07;1.50;;;11.80;99.90;;;;;;5124479;28;20183;-78
2021/12/30 15:18:19;;;;;;;2.50;1.90;;;11.80;99.90;;;;;;5125147;28;20212;-79
2021/12/30 15:20:45;;;;;;;1.90;1.73;;;11.80;99.90;;;;;;5124991;28;20210;-78
2021/12/30 15:23:12;;;;;;;2.37;2.00;;;11.80;99.90;;;;;;5125884;28;20178;-78
2021/12/30 15:25:38;;;;;;;2.77;1.80;;;11.80;99.90;;;;;;5122741;28;20552;-78
2021/12/30 15:28:04;;;;;;;2.73;1.90;;;11.80;99.90;;;;;;5126493;28;20195;-78
2021/12/30 15:30:31;;;;;;;2.73;1.50;;;11.80;99.90;;;;;;5125480;28;20186;-78
2021/12/30 15:33:02;;;;;;;6.63;4.40;;;11.80;99.90;;;;;;5128195;28;20246;-79
2021/12/30 15:35:29;;;;;;;7.83;5.50;;;11.80;99.90;;;;;;5125122;28;20182;-78
2021/12/30 15:37:57;;;;;;;2.63;1.80;;;12.00;99.90;;;;;;5122770;28;20305;-78
2021/12/30 15:40:25;;;;;;;2.83;1.70;;;11.60;99.90;;;;;;5123158;28;20171;-78
2021/12/30 15:42:52;;;;;;;3.53;1.70;;;11.80;99.90;;;;;;5123351;28;20528;-78
2021/12/30 15:45:18;;;;;;;5.20;3.77;;;11.90;99.90;;;;;;5121567;28;20175;-78
2021/12/30 15:47:47;;;;;;;6.37;5.57;;;12.00;99.90;;;;;;5123292;28;20195;-78
2021/12/30 15:50:15;;;;;;;3.83;3.33;;;11.50;99.90;;;;;;5123488;28;20172;-78
2021/12/30 15:52:42;;;;;;;3.80;3.50;;;11.70;99.90;;;;;;5120239;28;20176;-77
2021/12/30 15:55:08;;;;;;;4.67;3.20;;;11.80;99.90;;;;;;5119149;28;20528;-78
2021/12/30 15:57:35;;;;;;;2.07;1.60;;;11.80;99.90;;;;;;5117321;28;20541;-78
2021/12/30 16:00:01;;;;;;;3.03;1.73;;;;;;;;;;5120043;28;20240;-80
2021/12/30 16:02:26;;;;;;;1.73;1.63;;;11.60;99.90;;;;;;5119681;28;20516;-78
2021/12/30 16:04:53;;;;;;;2.10;1.70;;;11.40;99.90;;;;;;5121899;28;20178;-78
2021/12/30 16:07:20;;;;;;;1.93;1.30;;;11.50;99.90;;;;;;5123003;28;20536;-79
2021/12/30 16:09:46;;;;;;;5.53;5.03;;;11.60;99.90;;;;;;5125678;28;20236;-79
2021/12/30 16:12:11;;;;;;;2.30;1.77;;;11.40;99.90;;;;;;5121900;28;20179;-78
2021/12/30 16:14:38;;;;;;;1.90;1.50;;;11.50;99.90;;;;;;5119419;28;20172;-78
2021/12/30 16:17:07;;;;;;;2.70;2.50;;;11.70;99.90;;;;;;5119334;28;20278;-78
2021/12/30 16:19:33;;;;;;;3.03;2.37;;;11.70;99.90;;;;;;5124052;28;20206;-79
2021/12/30 16:21:59;;;;;;;8.43;7.73;;;11.50;99.90;;;;;;5123984;28;20642;-79
2021/12/30 16:24:30;;;;;;;3.57;3.27;;;;;;;;;;5123929;28;20171;-79
2021/12/30 16:26:56;;;;;;;1.87;1.60;;;11.20;99.90;;;;;;5122785;28;20186;-78
2021/12/30 16:29:22;;;;;;;33.37;26.57;;;11.60;99.90;;;;;;5122883;28;20258;-78
2021/12/30 16:31:48;;;;;;;8.47;5.50;;;;;;;;;;5122536;28;20571;-79
2021/12/30 16:34:13;;;;;;;10.70;9.70;;;11.50;99.90;;;;;;5121343;28;20238;-78
2021/12/30 16:36:39;;;;;;;8.07;4.60;;;11.30;99.90;;;;;;5123004;28;20190;-79
2021/12/30 16:39:05;;;;;;;8.27;4.50;;;;;;;;;;5120709;28;20211;-78
2021/12/30 16:41:31;;;;;;;3.13;2.70;;;11.30;99.90;;;;;;5122318;28;20172;-79
2021/12/30 16:43:58;;;;;;;20.37;15.00;;;;;;;;;;5121866;28;20171;-79
2021/12/30 16:46:27;;;;;;;7.77;6.97;;;11.50;99.90;;;;;;5122571;28;20175;-79
2021/12/30 16:48:53;;;;;;;11.07;8.20;;;11.50;99.90;;;;;;5122227;28;20180;-79
2021/12/30 16:51:20;;;;;;;26.50;16.23;;;11.30;99.90;;;;;;5121644;28;20172;-79
2021/12/30 16:53:46;;;;;;;8.40;5.33;;;11.80;99.90;;;;;;5122294;28;20625;-78
2021/12/30 16:56:12;;;;;;;21.50;12.30;;;11.70;99.90;;;;;;5122440;28;20184;-79
2021/12/30 16:58:37;;;;;;;29.97;17.97;;;11.60;99.90;;;;;;5121466;28;20207;-78
2021/12/30 17:01:05;;;;;;;13.67;6.87;;;11.50;99.90;;;;;;5121613;28;20187;-79
2021/12/30 17:03:32;;;;;;;25.67;11.93;;;11.70;99.90;;;;;;5121714;28;20170;-79
2021/12/30 17:05:57;;;;;;;2.83;1.70;;;11.70;99.90;;;;;;5121697;28;20171;-79
2021/12/30 17:08:27;;;;;;;4.47;2.83;;;11.60;99.90;;;;;;5120304;28;20256;-79
2021/12/30 17:10:54;;;;;;;3.50;2.10;;;11.60;99.90;;;;;;5121527;28;20177;-79
2021/12/30 17:13:22;;;;;;;2.57;1.50;;;;;;;;;;5121932;28;20191;-78
2021/12/30 17:15:48;;;;;;;2.00;1.63;;;11.60;99.90;;;;;;5121225;28;20540;-78
2021/12/30 17:18:14;;;;;;;2.20;1.50;;;;;;;;;;5122477;28;20214;-78
2021/12/30 17:20:39;;;;;;;3.57;1.80;;;11.70;99.90;;;;;;5123733;28;20185;-77
2021/12/30 17:23:06;;;;;;;5.07;2.50;;;11.50;99.90;;;;;;5118475;28;20176;-78
2021/12/30 17:25:32;;;;;;;1.73;1.30;;;11.70;99.90;;;;;;5117019;28;20186;-78
2021/12/30 17:28:00;;;;;;;2.70;1.67;;;11.70;99.90;;;;;;5115569;28;20195;-78
2021/12/30 17:30:28;;;;;;;28.87;14.07;;;11.60;99.90;;;;;;5116663;28;20649;-78
2021/12/30 17:32:55;;;;;;;5.63;3.07;;;11.70;99.90;;;;;;5114696;28;20175;-78
2021/12/30 17:35:21;;;;;;;5.77;3.33;;;11.60;99.90;;;;;;5115911;28;20207;-79
2021/12/30 17:37:47;;;;;;;6.43;2.20;;;12.00;99.90;;;;;;5122549;28;20645;-79
2021/12/30 17:40:15;;;;;;;2.03;1.70;;;11.80;99.90;;;;;;5121899;28;20179;-79
2021/12/30 17:42:44;;;;;;;2.13;1.90;;;11.50;99.90;;;;;;5122433;28;20625;-79
2021/12/30 17:45:12;;;;;;;3.33;2.70;;;11.70;99.90;;;;;;5121530;28;20186;-78
2021/12/30 17:47:45;;;;;;;3.47;2.60;;;12.00;99.90;;;;;;5123250;28;20206;-79
2021/12/30 17:50:12;;;;;;;2.20;1.67;;;11.60;99.90;;;;;;5126886;28;20151;-79
2021/12/30 17:52:38;;;;;;;3.77;2.70;;;11.90;99.90;;;;;;5125450;28;20175;-79
2021/12/30 17:55:04;;;;;;;1.77;1.13;;;11.90;99.90;;;;;;5121931;28;20525;-79
2021/12/30 17:57:29;;;;;;;2.30;1.67;;;11.90;99.90;;;;;;5120117;28;20207;-79
2021/12/30 17:59:55;;;;;;;5.17;4.67;;;11.50;99.90;;;;;;5119563;28;20207;-79
2021/12/30 18:02:21;;;;;;;1.70;1.60;;;11.70;99.90;;;;;;5120716;28;20178;-78
2021/12/30 18:04:46;;;;;;;1.83;1.30;;;11.80;99.90;;;;;;5120893;28;20182;-79
2021/12/30 18:07:12;;;;;;;4.07;2.87;;;11.80;99.90;;;;;;5119035;28;20233;-79
2021/12/30 18:09:39;;;;;;;1.60;1.33;;;11.80;99.90;;;;;;5119918;28;20179;-78
2021/12/30 18:12:05;;;;;;;2.07;1.50;;;11.70;99.90;;;;;;5121409;28;20232;-79
2021/12/30 18:14:30;;;;;;;2.67;2.13;;;11.80;99.90;;;;;;5123010;28;20258;-79
2021/12/30 18:16:56;;;;;;;2.90;2.67;;;11.60;99.90;;;;;;5123193;28;20199;-79
2021/12/30 18:19:24;;;;;;;4.83;3.80;;;11.90;99.90;;;;;;5125158;28;20256;-79
2021/12/30 18:21:50;;;;;;;2.20;1.60;;;11.80;99.90;;;;;;5124298;28;20177;-80
2021/12/30 18:24:16;;;;;;;2.67;2.10;;;;;;;;;;5119578;28;20266;-80
2021/12/30 18:26:42;;;;;;;5.47;4.17;;;11.80;99.90;;;;;;5121124;28;20221;-80
2021/12/30 18:29:08;;;;;;;11.77;8.23;;;11.60;99.90;;;;;;5121345;28;20172;-79
2021/12/30 18:31:33;;;;;;;3.60;2.17;;;11.80;99.90;;;;;;5119286;28;20186;-80
2021/12/30 18:34:00;;;;;;;17.77;11.97;;;11.50;99.90;;;;;;5121888;28;20525;-79
2021/12/30 18:36:26;;;;;;;4.77;4.27;;;11.20;99.90;;;;;;5121144;28;20228;-79
2021/12/30 18:38:51;;;;;;;7.20;6.20;;;11.60;99.90;;;;;;5119392;28;20669;-80
2021/12/30 18:41:17;;;;;;;10.63;8.63;;;11.50;99.90;;;;;;5126369;28;20220;-79
2021/12/30 18:43:43;;;;;;;5.50;3.90;;;11.50;99.90;;;;;;5124444;28;20546;-79
2021/12/30 18:46:09;;;;;;;2.93;2.13;;;11.50;99.90;;;;;;5127528;28;20187;-80
2021/12/30 18:48:36;;;;;;;2.03;1.83;;;11.40;99.90;;;;;;5124807;28;20200;-79
2021/12/30 18:51:04;;;;;;;5.90;3.70;;;;;;;;;;5122800;28;20179;-79
2021/12/30 18:53:36;;;;;;;3.23;2.40;;;11.20;99.90;;;;;;5125389;28;20260;-79
2021/12/30 18:56:06;;;;;;;3.77;1.67;;;11.40;99.90;;;;;;5123182;28;20240;-80
2021/12/30 18:58:32;;;;;;;3.20;1.53;;;11.10;99.90;;;;;;5123571;28;20207;-81
2021/12/30 19:00:59;;;;;;;2.57;1.80;;;11.20;99.90;;;;;;5124602;28;20180;-79
2021/12/30 19:03:25;;;;;;;3.13;1.90;;;;;;;;;;5124489;28;20678;-79
2021/12/30 19:05:51;;;;;;;3.50;2.70;;;11.40;99.90;;;;;;5123374;28;20566;-79
2021/12/30 19:08:17;;;;;;;1.50;1.40;;;11.20;99.90;;;;;;5123676;28;20199;-79
2021/12/30 19:10:44;;;;;;;2.87;1.27;;;11.50;99.90;;;;;;5126914;28;20187;-79
2021/12/30 19:13:15;;;;;;;1.57;0.93;;;11.30;99.90;;;;;;5122755;28;20175;-79
2021/12/30 19:15:43;;;;;;;3.00;1.53;;;11.40;99.90;;;;;;5123895;28;20563;-80
2021/12/30 19:18:10;;;;;;;1.97;1.23;;;11.30;99.90;;;;;;5123844;28;20252;-80
2021/12/30 19:20:37;;;;;;;1.87;1.30;;;11.40;99.90;;;;;;5123651;28;20531;-80
2021/12/30 19:23:04;;;;;;;1.53;0.93;;;11.30;99.90;;;;;;5124141;28;20183;-81
2021/12/30 19:25:30;;;;;;;1.27;0.90;;;11.20;99.90;;;;;;5124773;28;20609;-79
2021/12/30 19:27:59;;;;;;;1.07;0.70;;;11.20;99.90;;;;;;5123886;28;20202;-80
2021/12/30 19:30:25;;;;;;;1.57;0.90;;;11.40;99.90;;;;;;5122820;28;20198;-79
2021/12/30 19:32:51;;;;;;;0.70;0.70;;;11.30;99.90;;;;;;5123836;28;20199;-80
2021/12/30 19:35:17;;;;;;;1.07;0.80;;;11.10;99.90;;;;;;5123369;28;20174;-80
2021/12/30 19:37:45;;;;;;;2.63;0.90;;;11.60;99.90;;;;;;5129392;28;20456;-79
2021/12/30 19:40:13;;;;;;;1.00;0.80;;;11.30;99.90;;;;;;5125114;28;20556;-80
2021/12/30 19:42:40;;;;;;;1.17;0.80;;;11.50;99.90;;;;;;5122112;28;20540;-80
2021/12/30 19:45:08;;;;;;;1.00;0.70;;;11.20;99.90;;;;;;5121473;28;20179;-80
2021/12/30 19:47:35;;;;;;;0.90;0.90;;;11.40;99.90;;;;;;5120557;28;20580;-79
2021/12/30 19:50:01;;;;;;;1.20;1.10;;;11.20;99.90;;;;;;5120146;28;20175;-80
2021/12/30 19:52:27;;;;;;;3.03;1.80;;;11.20;99.90;;;;;;5123477;28;20183;-79
2021/12/30 19:54:53;;;;;;;1.90;1.70;;;11.40;99.90;;;;;;5121905;28;20181;-80
2021/12/30 19:57:19;;;;;;;1.20;0.93;;;11.50;99.90;;;;;;5122862;28;20530;-79
2021/12/30 19:59:45;;;;;;;0.70;0.70;;;11.50;99.90;;;;;;5122477;28;20282;-80
2021/12/30 20:02:11;;;;;;;1.63;1.00;;;11.40;99.90;;;;;;5123570;28;20199;-80
2021/12/30 20:04:37;;;;;;;0.70;0.60;;;11.30;99.90;;;;;;5124224;28;20175;-80
2021/12/30 20:07:04;;;;;;;0.90;0.83;;;11.20;99.90;;;;;;5123734;28;20199;-80
2021/12/30 20:09:30;;;;;;;0.80;0.80;;;11.40;99.90;;;;;;5123323;28;20164;-80
2021/12/30 20:11:57;;;;;;;1.37;0.93;;;;;;;;;;5122769;28;20174;-80
2021/12/30 20:14:23;;;;;;;1.00;0.90;;;11.50;99.90;;;;;;5122094;28;20175;-80
2021/12/30 20:16:50;;;;;;;1.10;0.80;;;11.60;99.90;;;;;;5122872;28;20203;-79
2021/12/30 20:19:16;;;;;;;1.77;0.80;;;11.50;99.90;;;;;;5121911;28;20210;-79
2021/12/30 20:21:42;;;;;;;0.70;0.70;;;11.60;99.90;;;;;;5122083;28;20170;-79
2021/12/30 20:24:08;;;;;;;3.13;1.00;;;;;;;;;;5122164;28;20571;-80
